createdAt,value
2022-12-27T00:00:15.890Z,-20.55
2022-12-27T00:02:44.936Z,-20.52
2022-12-27T00:05:15.043Z,-20.46
2022-12-27T00:07:45.103Z,-20.46
2022-12-27T00:10:13.942Z,-20.47
2022-12-27T00:12:42.792Z,-20.50
2022-12-27T00:15:11.705Z,-20.50
2022-12-27T00:17:41.413Z,-20.51
2022-12-27T00:20:11.842Z,-20.45
2022-12-27T00:22:41.713Z,-20.44
2022-12-27T00:25:11.582Z,-20.43
2022-12-27T00:27:41.923Z,-20.47
2022-12-27T00:30:11.526Z,-20.50
2022-12-27T00:32:41.192Z,-20.50
2022-12-27T00:35:10.397Z,-20.49
2022-12-27T00:37:39.485Z,-20.43
2022-12-27T00:40:08.898Z,-20.42
2022-12-27T00:42:38.754Z,-20.37
2022-12-27T00:45:09.873Z,-20.31
2022-12-27T00:47:38.681Z,-20.30
2022-12-27T00:50:07.809Z,-20.25
2022-12-27T00:52:36.720Z,-20.22
2022-12-27T00:55:06.416Z,-20.19
2022-12-27T00:57:35.384Z,-20.14
2022-12-27T01:00:10.440Z,-20.11
2022-12-27T01:02:40.355Z,-20.10
2022-12-27T01:05:09.454Z,-20.13
2022-12-27T01:07:38.308Z,-20.13
2022-12-27T01:10:07.569Z,-20.13
2022-12-27T01:12:37.027Z,-20.11
2022-12-27T01:15:07.799Z,-20.12
2022-12-27T01:17:36.814Z,-20.14
2022-12-27T01:20:06.533Z,-20.13
2022-12-27T01:22:35.327Z,-20.09
2022-12-27T01:25:05.230Z,-20.03
2022-12-27T01:27:34.048Z,-20.03
2022-12-27T01:30:04.073Z,-20.02
2022-12-27T01:32:36.261Z,-19.99
2022-12-27T01:35:05.487Z,-19.98
2022-12-27T01:37:34.309Z,-20.01
2022-12-27T01:40:03.454Z,-20.05
2022-12-27T01:42:50.799Z,-20.03
2022-12-27T01:45:28.420Z,-20.04
2022-12-27T01:48:10.272Z,-20.00
2022-12-27T01:50:50.498Z,-20.02
2022-12-27T01:53:22.856Z,-19.98
2022-12-27T01:55:57.009Z,-19.97
2022-12-27T01:58:33.896Z,-19.95
2022-12-27T02:01:05.738Z,-19.94
2022-12-27T02:03:46.545Z,-19.92
2022-12-27T02:06:16.838Z,-19.89
2022-12-27T02:08:57.353Z,-19.85
2022-12-27T02:11:53.104Z,-19.78
2022-12-27T02:14:28.603Z,-19.77
2022-12-27T02:17:00.673Z,-19.70
2022-12-27T02:20:01.959Z,-19.60
2022-12-27T02:23:01.394Z,-19.53
2022-12-27T02:25:51.948Z,-19.43
2022-12-27T02:28:42.417Z,-19.31
2022-12-27T02:31:38.900Z,-19.27
2022-12-27T02:34:17.841Z,-19.21
2022-12-27T02:36:47.802Z,-19.12
2022-12-27T02:39:18.875Z,-19.08
2022-12-27T02:42:08.226Z,-19.03
2022-12-27T02:44:56.273Z,-19.03
2022-12-27T02:47:44.203Z,-18.98
2022-12-27T02:50:34.022Z,-18.99
2022-12-27T02:53:40.096Z,-18.90
2022-12-27T02:56:47.486Z,-18.78
2022-12-27T03:00:20.007Z,-18.71
2022-12-27T03:03:29.272Z,-18.62
2022-12-27T03:06:48.744Z,-18.53
2022-12-27T03:10:07.671Z,-18.47
2022-12-27T03:13:03.087Z,-18.40
2022-12-27T03:15:56.075Z,-18.34
2022-12-27T03:18:49.611Z,-18.18
2022-12-27T03:22:04.341Z,-18.10
2022-12-27T03:24:56.515Z,-18.03
2022-12-27T03:27:32.787Z,-17.98
2022-12-27T03:30:21.873Z,-18.00
2022-12-27T03:33:14.338Z,-18.10
2022-12-27T03:36:13.450Z,-18.05
2022-12-27T03:38:52.902Z,-18.04
2022-12-27T03:41:48.642Z,-17.98
2022-12-27T03:44:26.443Z,-17.96
2022-12-27T03:47:15.259Z,-17.89
2022-12-27T03:49:55.524Z,-17.84
2022-12-27T03:52:34.571Z,-17.72
2022-12-27T03:55:03.893Z,-17.71
2022-12-27T03:57:32.902Z,-17.69
2022-12-27T04:00:01.848Z,-17.76
2022-12-27T04:02:32.505Z,-17.75
2022-12-27T04:05:01.861Z,-17.69
2022-12-27T04:07:31.379Z,-17.60
2022-12-27T04:10:18.835Z,-17.52
2022-12-27T04:13:06.459Z,-17.36
2022-12-27T04:15:53.787Z,-17.32
2022-12-27T04:18:41.127Z,-17.30
2022-12-27T04:21:29.424Z,-17.28
2022-12-27T04:24:16.687Z,-17.24
2022-12-27T04:27:03.963Z,-17.15
2022-12-27T04:29:51.490Z,-17.05
2022-12-27T04:32:38.967Z,-17.00
2022-12-27T04:35:08.622Z,-17.06
2022-12-27T04:37:37.430Z,-17.06
2022-12-27T04:40:25.344Z,-17.01
2022-12-27T04:43:12.603Z,-16.95
2022-12-27T04:45:59.939Z,-16.94
2022-12-27T04:48:48.777Z,-16.92
2022-12-27T04:51:36.237Z,-16.90
2022-12-27T04:54:25.165Z,-16.84
2022-12-27T04:56:53.995Z,-16.78
2022-12-27T04:59:41.264Z,-16.74
2022-12-27T05:02:11.078Z,-16.71
2022-12-27T05:04:41.058Z,-16.80
2022-12-27T05:07:31.321Z,-16.88
2022-12-27T05:10:20.675Z,-16.91
2022-12-27T05:13:08.046Z,-16.87
2022-12-27T05:15:36.927Z,-16.64
2022-12-27T05:18:05.876Z,-16.51
2022-12-27T05:20:35.884Z,-16.37
2022-12-27T05:23:23.241Z,-16.34
2022-12-27T05:25:53.410Z,-16.36
2022-12-27T05:28:22.319Z,-16.37
2022-12-27T05:30:51.342Z,-16.36
2022-12-27T05:33:20.168Z,-16.37
2022-12-27T05:35:48.969Z,-16.40
2022-12-27T05:38:17.802Z,-16.44
2022-12-27T05:40:46.692Z,-16.47
2022-12-27T05:43:16.229Z,-16.47
2022-12-27T05:45:45.023Z,-16.47
2022-12-27T05:48:13.984Z,-16.43
2022-12-27T05:50:42.827Z,-16.42
2022-12-27T05:53:12.914Z,-16.43
2022-12-27T05:55:42.069Z,-16.48
2022-12-27T05:58:10.833Z,-16.47
2022-12-27T06:00:40.397Z,-16.43
2022-12-27T06:03:09.536Z,-16.40
2022-12-27T06:05:38.765Z,-16.33
2022-12-27T06:08:07.578Z,-16.19
2022-12-27T06:10:37.014Z,-16.01
2022-12-27T06:13:06.186Z,-15.95
2022-12-27T06:15:35.189Z,-15.99
2022-12-27T06:18:07.247Z,-15.98
2022-12-27T06:20:36.129Z,-16.03
2022-12-27T06:23:05.128Z,-16.07
2022-12-27T06:25:33.931Z,-16.10
2022-12-27T06:28:02.744Z,-16.16
2022-12-27T06:30:35.989Z,-16.19
2022-12-27T06:33:05.267Z,-16.16
2022-12-27T06:35:34.061Z,-16.11
2022-12-27T06:38:02.925Z,-16.04
2022-12-27T06:40:31.810Z,-15.98
2022-12-27T06:43:00.662Z,-15.94
2022-12-27T06:45:29.552Z,-15.91
2022-12-27T06:47:58.531Z,-15.86
2022-12-27T06:50:27.526Z,-15.82
2022-12-27T06:52:56.758Z,-15.75
2022-12-27T06:55:25.637Z,-15.78
2022-12-27T06:57:55.419Z,-15.87
2022-12-27T07:00:24.411Z,-15.92
2022-12-27T07:02:54.370Z,-15.95
2022-12-27T07:05:23.462Z,-15.98
2022-12-27T07:07:54.522Z,-16.08
2022-12-27T07:10:23.504Z,-16.14
2022-12-27T07:12:52.278Z,-16.14
2022-12-27T07:15:21.309Z,-16.10
2022-12-27T07:17:50.482Z,-16.10
2022-12-27T07:20:19.504Z,-16.08
2022-12-27T07:22:48.446Z,-16.05
2022-12-27T07:25:17.338Z,-16.01
2022-12-27T07:27:46.163Z,-15.94
2022-12-27T07:30:15.068Z,-15.90
2022-12-27T07:32:43.895Z,-15.88
2022-12-27T07:35:12.822Z,-15.89
2022-12-27T07:37:41.678Z,-15.93
2022-12-27T07:40:10.915Z,-15.94
2022-12-27T07:42:40.960Z,-15.95
2022-12-27T07:45:10.360Z,-15.97
2022-12-27T07:47:39.316Z,-15.96
2022-12-27T07:50:08.541Z,-15.97
2022-12-27T07:52:37.377Z,-16.04
2022-12-27T07:55:06.776Z,-16.03
2022-12-27T07:57:35.696Z,-16.04
2022-12-27T08:00:06.804Z,-16.01
2022-12-27T08:02:41.054Z,-16.00
2022-12-27T08:05:10.743Z,-16.03
2022-12-27T08:07:41.316Z,-16.02
2022-12-27T08:10:11.443Z,-15.96
2022-12-27T08:12:41.664Z,-15.96
2022-12-27T08:15:12.094Z,-15.95
2022-12-27T08:17:41.098Z,-15.91
2022-12-27T08:20:15.188Z,-15.92
2022-12-27T08:22:44.017Z,-15.92
2022-12-27T08:25:12.937Z,-15.95
2022-12-27T08:27:41.963Z,-15.95
2022-12-27T08:30:11.331Z,-15.95
2022-12-27T08:32:40.160Z,-15.93
2022-12-27T08:35:41.807Z,-15.90
2022-12-27T08:37:58.252Z,-15.83
2022-12-27T08:40:28.565Z,-15.74
2022-12-27T08:42:57.511Z,-15.75
2022-12-27T08:45:26.328Z,-15.68
2022-12-27T08:48:00.308Z,-15.70
2022-12-27T08:50:30.144Z,-15.67
2022-12-27T08:53:03.438Z,-15.66
2022-12-27T08:55:32.955Z,-15.66
2022-12-27T08:58:06.980Z,-15.65
2022-12-27T09:00:42.065Z,-15.62
2022-12-27T09:03:11.838Z,-15.60
2022-12-27T09:05:42.185Z,-15.56
2022-12-27T09:08:12.412Z,-15.53
2022-12-27T09:10:41.271Z,-15.50
2022-12-27T09:13:10.159Z,-15.51
2022-12-27T09:15:39.702Z,-15.51
2022-12-27T09:18:08.551Z,-15.55
2022-12-27T09:20:38.559Z,-15.56
2022-12-27T09:23:07.496Z,-15.57
2022-12-27T09:25:36.525Z,-15.59
2022-12-27T09:28:05.555Z,-15.52
2022-12-27T09:30:34.504Z,-15.57
2022-12-27T09:33:03.336Z,-15.54
2022-12-27T09:35:38.320Z,-15.52
2022-12-27T09:38:07.988Z,-15.53
2022-12-27T09:40:37.613Z,-15.53
2022-12-27T09:43:21.013Z,-15.51
2022-12-27T09:45:57.601Z,-15.52
2022-12-27T09:48:39.735Z,-15.53
2022-12-27T09:51:44.091Z,-15.50
2022-12-27T09:54:24.572Z,-15.52
2022-12-27T09:57:18.993Z,-15.49
2022-12-27T09:59:49.038Z,-15.46
2022-12-27T10:02:25.115Z,-15.47
2022-12-27T10:05:19.682Z,-15.48
2022-12-27T10:07:46.410Z,-15.44
2022-12-27T10:10:42.282Z,-15.39
2022-12-27T10:13:30.333Z,-15.38
2022-12-27T10:16:07.932Z,-15.45
2022-12-27T10:19:11.878Z,-15.49
2022-12-27T10:21:57.001Z,-15.48
2022-12-27T10:24:46.579Z,-15.43
2022-12-27T10:27:24.806Z,-15.44
2022-12-27T10:29:57.271Z,-15.42
2022-12-27T10:32:26.942Z,-15.39
2022-12-27T10:35:00.991Z,-15.36
2022-12-27T10:37:32.286Z,-15.30
2022-12-27T10:40:16.432Z,-15.27
2022-12-27T10:43:05.562Z,-15.18
2022-12-27T10:45:39.827Z,-15.21
2022-12-27T10:48:20.936Z,-15.24
2022-12-27T10:50:55.874Z,-15.20
2022-12-27T10:53:41.414Z,-15.22
2022-12-27T10:56:12.240Z,-15.20
2022-12-27T10:58:58.189Z,-15.16
2022-12-27T11:01:31.236Z,-15.17
2022-12-27T11:04:20.092Z,-15.18
2022-12-27T11:06:52.549Z,-15.19
2022-12-27T11:09:34.722Z,-15.16
2022-12-27T11:12:24.784Z,-15.12
2022-12-27T11:15:16.333Z,-15.08
2022-12-27T11:18:11.102Z,-15.05
2022-12-27T11:20:45.533Z,-15.02
2022-12-27T11:23:20.139Z,-15.03
2022-12-27T11:25:49.033Z,-14.98
2022-12-27T11:28:38.502Z,-14.94
2022-12-27T11:31:19.838Z,-14.92
2022-12-27T11:33:51.896Z,-14.92
2022-12-27T11:36:49.049Z,-14.93
2022-12-27T11:39:52.483Z,-14.90
2022-12-27T11:42:40.200Z,-14.85
2022-12-27T11:45:22.251Z,-14.83
2022-12-27T11:48:04.059Z,-14.77
2022-12-27T11:51:03.019Z,-14.65
2022-12-27T11:54:15.785Z,-14.58
2022-12-27T11:57:25.436Z,-14.57
2022-12-27T12:00:23.183Z,-14.52
2022-12-27T12:02:58.937Z,-14.53
2022-12-27T12:05:46.056Z,-14.51
2022-12-27T12:08:15.103Z,-14.50
2022-12-27T12:11:21.363Z,-14.46
2022-12-27T12:14:11.587Z,-14.43
2022-12-27T12:16:52.637Z,-14.41
2022-12-27T12:19:49.594Z,-14.38
2022-12-27T12:22:36.476Z,-14.32
2022-12-27T12:25:24.343Z,-14.33
2022-12-27T12:28:57.036Z,-14.32
2022-12-27T12:31:22.164Z,-14.33
2022-12-27T12:34:04.855Z,-14.31
2022-12-27T12:36:54.102Z,-14.31
2022-12-27T12:39:35.230Z,-14.29
2022-12-27T12:42:16.632Z,-14.27
2022-12-27T12:44:58.267Z,-14.28
2022-12-27T12:48:03.609Z,-14.29
2022-12-27T12:51:17.753Z,-14.27
2022-12-27T12:54:03.496Z,-14.26
2022-12-27T12:57:08.634Z,-14.23
2022-12-27T13:00:10.100Z,-14.21
2022-12-27T13:03:23.505Z,-14.22
2022-12-27T13:06:13.028Z,-14.17
2022-12-27T13:08:44.826Z,-14.14
2022-12-27T13:11:32.164Z,-14.10
2022-12-27T13:14:39.258Z,-14.06
2022-12-27T13:17:32.603Z,-14.13
2022-12-27T13:20:35.166Z,-14.08
2022-12-27T13:23:58.203Z,-14.04
2022-12-27T13:26:47.728Z,-14.04
2022-12-27T13:29:50.497Z,-14.07
2022-12-27T13:32:37.950Z,-14.01
2022-12-27T13:35:42.238Z,-13.94
2022-12-27T13:38:35.980Z,-13.92
2022-12-27T13:41:17.073Z,-13.90
2022-12-27T13:44:10.578Z,-13.84
2022-12-27T13:46:50.363Z,-13.84
2022-12-27T13:49:39.390Z,-13.82
2022-12-27T13:52:52.213Z,-13.79
2022-12-27T13:55:36.607Z,-13.79
2022-12-27T13:58:35.980Z,-13.80
2022-12-27T14:01:23.963Z,-13.82
2022-12-27T14:04:01.850Z,-13.85
2022-12-27T14:06:33.905Z,-13.87
2022-12-27T14:09:11.778Z,-13.86
2022-12-27T14:12:06.766Z,-13.80
2022-12-27T14:14:40.002Z,-13.77
2022-12-27T14:17:20.810Z,-13.73
2022-12-27T14:19:58.841Z,-13.64
2022-12-27T14:22:27.681Z,-13.62
2022-12-27T14:25:02.377Z,-13.61
2022-12-27T14:27:59.405Z,-13.57
2022-12-27T14:30:46.744Z,-13.57
2022-12-27T14:33:46.404Z,-13.56
2022-12-27T14:36:36.712Z,-13.57
2022-12-27T14:39:21.612Z,-13.63
2022-12-27T14:42:08.783Z,-13.68
2022-12-27T14:45:01.921Z,-13.76
2022-12-27T14:48:05.634Z,-13.86
2022-12-27T14:51:01.923Z,-13.88
2022-12-27T14:54:07.516Z,-13.84
2022-12-27T14:56:56.253Z,-13.75
2022-12-27T14:59:46.317Z,-13.71
2022-12-27T15:02:16.241Z,-13.73
2022-12-27T15:05:08.569Z,-13.70
2022-12-27T15:07:37.389Z,-13.67
2022-12-27T15:10:09.227Z,-13.66
2022-12-27T15:12:47.156Z,-13.66
2022-12-27T15:15:21.726Z,-13.65
2022-12-27T15:18:06.818Z,-13.62
2022-12-27T15:20:44.087Z,-13.60
2022-12-27T15:23:25.099Z,-13.58
2022-12-27T15:26:15.494Z,-13.63
2022-12-27T15:28:47.310Z,-13.66
2022-12-27T15:31:28.490Z,-13.70
2022-12-27T15:34:15.624Z,-13.69
2022-12-27T15:36:48.224Z,-13.71
2022-12-27T15:39:35.105Z,-13.69
2022-12-27T15:42:22.616Z,-13.69
2022-12-27T15:45:09.511Z,-13.67
2022-12-27T15:47:56.435Z,-13.70
2022-12-27T15:50:43.980Z,-13.73
2022-12-27T15:53:37.178Z,-13.74
2022-12-27T15:56:18.115Z,-13.75
2022-12-27T15:59:25.386Z,-13.79
2022-12-27T16:02:39.424Z,-13.78
2022-12-27T16:05:32.922Z,-13.73
2022-12-27T16:08:04.745Z,-13.67
2022-12-27T16:10:36.116Z,-13.65
2022-12-27T16:13:11.200Z,-13.58
2022-12-27T16:15:48.455Z,-13.53
2022-12-27T16:18:20.505Z,-13.50
2022-12-27T16:20:56.784Z,-13.46
2022-12-27T16:23:31.298Z,-13.37
2022-12-27T16:26:08.831Z,-13.33
2022-12-27T16:28:38.817Z,-13.28
2022-12-27T16:31:12.852Z,-13.21
2022-12-27T16:33:43.030Z,-13.18
2022-12-27T16:36:20.146Z,-13.15
2022-12-27T16:39:01.937Z,-13.14
2022-12-27T16:41:55.813Z,-13.13
2022-12-27T16:44:24.710Z,-13.17
2022-12-27T16:47:15.055Z,-13.19
2022-12-27T16:50:26.635Z,-13.22
2022-12-27T16:53:26.175Z,-13.30
2022-12-27T16:56:13.121Z,-13.37
2022-12-27T16:58:41.998Z,-13.48
2022-12-27T17:01:27.233Z,-13.52
2022-12-27T17:04:00.123Z,-13.65
2022-12-27T17:06:33.596Z,-13.62
2022-12-27T17:09:09.810Z,-13.66
2022-12-27T17:11:50.950Z,-13.64
2022-12-27T17:14:25.950Z,-13.64
2022-12-27T17:16:58.999Z,-13.65
2022-12-27T17:20:00.510Z,-13.58
2022-12-27T17:22:34.713Z,-13.54
2022-12-27T17:25:05.162Z,-13.51
2022-12-27T17:27:52.191Z,-13.50
2022-12-27T17:31:01.201Z,-13.57
2022-12-27T17:33:32.967Z,-13.57
2022-12-27T17:36:19.937Z,-13.64
2022-12-27T17:38:51.545Z,-13.72
2022-12-27T17:41:46.233Z,-13.74
2022-12-27T17:44:39.255Z,-13.82
2022-12-27T17:47:29.899Z,-13.84
2022-12-27T17:50:04.080Z,-13.91
2022-12-27T17:52:51.801Z,-13.93
2022-12-27T17:55:45.709Z,-13.92
2022-12-27T17:58:19.509Z,-13.94
2022-12-27T18:01:02.185Z,-13.96
2022-12-27T18:03:43.724Z,-14.00
2022-12-27T18:06:13.332Z,-14.01
2022-12-27T18:08:42.977Z,-14.03
2022-12-27T18:11:16.225Z,-14.08
2022-12-27T18:13:54.369Z,-14.11
2022-12-27T18:16:34.557Z,-14.15
2022-12-27T18:19:03.992Z,-14.14
2022-12-27T18:21:33.130Z,-14.15
2022-12-27T18:24:02.055Z,-14.15
2022-12-27T18:26:39.589Z,-14.17
2022-12-27T18:29:12.964Z,-14.19
2022-12-27T18:31:53.755Z,-14.21
2022-12-27T18:34:28.658Z,-14.23
2022-12-27T18:37:05.700Z,-14.26
2022-12-27T18:39:41.205Z,-14.26
2022-12-27T18:42:41.844Z,-14.28
2022-12-27T18:45:23.525Z,-14.31
2022-12-27T18:47:55.148Z,-14.26
2022-12-27T18:50:27.253Z,-14.23
2022-12-27T18:53:08.012Z,-14.24
2022-12-27T18:55:37.617Z,-14.22
2022-12-27T18:58:20.421Z,-14.24
2022-12-27T19:01:27.280Z,-14.24
2022-12-27T19:04:23.451Z,-14.24
2022-12-27T19:06:55.200Z,-14.22
2022-12-27T19:09:29.821Z,-14.21
2022-12-27T19:12:06.194Z,-14.18
2022-12-27T19:14:46.911Z,-14.18
2022-12-27T19:17:31.096Z,-14.19
2022-12-27T19:20:06.867Z,-14.14
2022-12-27T19:22:52.859Z,-14.11
2022-12-27T19:25:28.437Z,-14.12
2022-12-27T19:28:12.300Z,-14.09
2022-12-27T19:30:48.596Z,-14.07
2022-12-27T19:33:29.989Z,-13.98
2022-12-27T19:35:59.742Z,-13.94
2022-12-27T19:38:30.778Z,-13.91
2022-12-27T19:41:03.764Z,-13.89
2022-12-27T19:43:41.194Z,-13.83
2022-12-27T19:46:13.969Z,-13.76
2022-12-27T19:48:43.016Z,-13.69
2022-12-27T19:51:17.135Z,-13.66
2022-12-27T19:53:55.430Z,-13.66
2022-12-27T19:56:26.685Z,-13.69
2022-12-27T19:58:55.493Z,-13.64
2022-12-27T20:01:25.495Z,-13.57
2022-12-27T20:03:54.698Z,-13.47
2022-12-27T20:06:28.123Z,-13.40
2022-12-27T20:08:57.226Z,-13.30
2022-12-27T20:11:28.383Z,-13.24
2022-12-27T20:13:57.284Z,-13.18
2022-12-27T20:16:26.483Z,-13.13
2022-12-27T20:18:55.501Z,-13.09
2022-12-27T20:21:24.624Z,-13.09
2022-12-27T20:23:53.464Z,-13.11
2022-12-27T20:26:24.874Z,-13.07
2022-12-27T20:28:54.415Z,-13.04
2022-12-27T20:31:23.495Z,-12.99
2022-12-27T20:33:56.540Z,-12.95
2022-12-27T20:36:25.581Z,-12.92
2022-12-27T20:38:54.433Z,-12.94
2022-12-27T20:41:23.552Z,-12.90
2022-12-27T20:43:59.388Z,-12.86
2022-12-27T20:46:28.448Z,-12.79
2022-12-27T20:48:57.678Z,-12.77
2022-12-27T20:51:28.788Z,-12.82
2022-12-27T20:53:59.210Z,-12.86
2022-12-27T20:56:28.687Z,-12.89
2022-12-27T20:58:58.007Z,-12.92
2022-12-27T21:01:28.053Z,-12.91
2022-12-27T21:03:58.022Z,-12.86
2022-12-27T21:06:29.690Z,-12.79
2022-12-27T21:08:59.176Z,-12.73
2022-12-27T21:11:34.193Z,-12.67
2022-12-27T21:14:04.826Z,-12.64
2022-12-27T21:16:35.442Z,-12.60
2022-12-27T21:19:05.952Z,-12.55
2022-12-27T21:21:37.885Z,-12.61
2022-12-27T21:24:08.672Z,-12.51
2022-12-27T21:26:39.886Z,-12.47
2022-12-27T21:29:10.416Z,-12.39
2022-12-27T21:31:39.522Z,-12.36
2022-12-27T21:34:08.519Z,-12.33
2022-12-27T21:36:38.903Z,-12.28
2022-12-27T21:39:08.155Z,-12.25
2022-12-27T21:41:39.530Z,-12.20
2022-12-27T21:44:08.527Z,-12.22
2022-12-27T21:46:40.001Z,-12.17
2022-12-27T21:49:13.823Z,-12.15
2022-12-27T21:51:43.881Z,-12.10
2022-12-27T21:54:14.378Z,-12.10
2022-12-27T21:56:43.334Z,-12.04
2022-12-27T21:59:12.603Z,-12.02
2022-12-27T22:01:50.045Z,-11.97
2022-12-27T22:04:22.137Z,-11.94
2022-12-27T22:06:51.337Z,-11.93
2022-12-27T22:09:20.339Z,-11.89
2022-12-27T22:11:49.480Z,-11.85
2022-12-27T22:14:23.324Z,-11.84
2022-12-27T22:16:54.018Z,-11.83
2022-12-27T22:19:22.960Z,-11.80
2022-12-27T22:21:51.805Z,-11.83
2022-12-27T22:24:20.573Z,-11.85
2022-12-27T22:26:50.660Z,-11.82
2022-12-27T22:29:19.940Z,-11.80
2022-12-27T22:31:48.753Z,-11.79
2022-12-27T22:34:17.568Z,-11.80
2022-12-27T22:36:46.401Z,-11.81
2022-12-27T22:39:15.323Z,-11.80
2022-12-27T22:41:44.676Z,-11.80
2022-12-27T22:44:15.695Z,-11.80
2022-12-27T22:47:15.747Z,-11.81
2022-12-27T22:49:33.359Z,-11.80
2022-12-27T22:52:02.286Z,-11.77
2022-12-27T22:55:03.380Z,-11.74
2022-12-27T22:57:19.928Z,-11.71
2022-12-27T22:59:48.722Z,-11.66
2022-12-27T23:02:18.421Z,-11.66
2022-12-27T23:04:47.683Z,-11.61
2022-12-27T23:07:20.522Z,-11.59
2022-12-27T23:09:49.289Z,-11.58
2022-12-27T23:12:18.014Z,-11.59
2022-12-27T23:14:46.853Z,-11.56
2022-12-27T23:17:15.792Z,-11.53
2022-12-27T23:19:44.634Z,-11.48
2022-12-27T23:22:13.659Z,-11.44
2022-12-27T23:24:42.465Z,-11.40
2022-12-27T23:27:11.393Z,-11.41
2022-12-27T23:29:40.314Z,-11.40
2022-12-27T23:32:09.280Z,-11.39
2022-12-27T23:34:38.098Z,-11.34
2022-12-27T23:37:06.916Z,-11.32
2022-12-27T23:39:35.859Z,-11.34
2022-12-27T23:42:04.795Z,-11.30
2022-12-27T23:44:34.933Z,-11.28
2022-12-27T23:47:06.018Z,-11.27
2022-12-27T23:49:35.299Z,-11.24
2022-12-27T23:52:04.180Z,-11.21
2022-12-27T23:54:33.104Z,-11.20
2022-12-27T23:57:19.930Z,-11.19
2022-12-27T23:59:49.949Z,-11.17
